Portada
METAR-TAF:

METAR-TAF

Aeroports :

Yeovilton, Anglaterra

latitud: 51-00N, longitud: 002-38W, altitud: 23 m

Observació

L'informe es va fer fa 33 minuts, a les 03:50 UTC
Vent 12 kt del Est/Sud-Est
Temperatura 6°C
Humitat 87%
Pressió 1002 hPa
Visibilitat 10 km o més
Escasses núvols a una alçada de 2000 ft

METAR: EGDY 210350Z 11012KT 9999 FEW020 06/04 Q1002 BLU

Hora: 04:23 (04:23 UTC)

Pronòstic

L'informe es va fer fa 11 hores i 50 minuts, a les 16:33 UTC
Pronòstic vàlid del 20 a les 18 UTC al 21 a les 03 UTC
Vent 10 kt del Est amb ràfegues de 20 kt
Visibilitat 10 km o més
Cel ennuvolat a una alçada de 3000 ft
Probabilitat 30% :
Temporalment
l' 20 a les 18 UTC al 21 a les 03 UTC
Núvols disperses a una alçada de 2000 ft

TAF: EGDY 201633Z 2018/2103 10010G20KT 9999 BKN030 PROB30 TEMPO 2018/2103 SCT020

Observacions i pronòstics meteorològics de més de 4000 aeroports (METAR i TAF).

Les estacions disponibles són els punts grocs i vermells al mapa.

Posi el ratolí al punt desitjat per veure el nom de l'estació.

Feu clic per veure les observacions i els pronòstics meteorològics.

Per canviar el mapa: feu clic els botons verds amb una creu de color negre per apropar; al botó verd amb un guió per allunyar la imatge; o en les fletxes verdes per a mapes adjacents.


METAR-TAF: